Time;durP1;ratioP1;P1;durP2;ratioP2;P2;SDS_P1;SDS_P2;PMS_P1;PMS_P2;Temp;Humidity;BMP_temperature;BMP_pressure;BME280_temperature;BME280_humidity;BME280_pressure;Samples;Min_cycle;Max_cycle;Signal;HPM_P1;HPM_P2
2023/09/18 00:01:47;;;;;;;;;;;16.30;99.90;;;;;;4919124;28;20346;-72
2023/09/18 00:04:13;;;;;;;;;;;16.30;99.90;;;;;;4921541;28;19946;-72
2023/09/18 00:06:39;;;;;;;;;;;16.30;99.90;;;;;;4921006;28;19935;-73
2023/09/18 00:09:06;;;;;;;;;;;16.20;99.90;;;;;;4924392;28;19934;-72
2023/09/18 00:11:32;;;;;;;;;;;16.30;99.90;;;;;;4921555;28;20531;-72
2023/09/18 00:13:57;;;;;;;;;;;16.30;99.90;;;;;;4907322;28;19943;-71
2023/09/18 00:16:24;;;;;;;;;;;16.30;99.90;;;;;;4920925;28;19932;-72
2023/09/18 00:18:50;;;;;;;;;;;16.30;99.90;;;;;;4922112;28;19935;-72
2023/09/18 00:21:16;;;;;;;;;;;16.30;99.90;;;;;;4917928;28;19945;-72
2023/09/18 00:23:42;;;;;;;;;;;16.30;99.90;;;;;;4922729;28;19941;-72
2023/09/18 00:26:07;;;;;;;;;;;16.30;99.90;;;;;;4920311;28;19941;-72
2023/09/18 00:28:33;;;;;;;;;;;16.30;99.90;;;;;;4925923;28;19932;-72
2023/09/18 00:30:58;;;;;;;;;;;16.30;99.90;;;;;;4918054;28;20277;-71
2023/09/18 00:33:24;;;;;;;;;;;16.40;99.90;;;;;;4921181;28;19980;-71
2023/09/18 00:35:50;;;;;;;;;;;16.40;99.90;;;;;;4923419;28;19954;-71
2023/09/18 00:38:16;;;;;;;;;;;16.40;99.90;;;;;;4921735;28;20482;-72
2023/09/18 00:40:41;;;;;;;;;;;16.50;99.90;;;;;;4925691;28;19941;-72
2023/09/18 00:43:07;;;;;;;;;;;16.40;99.90;;;;;;4935295;28;19942;-72
2023/09/18 00:45:33;;;;;;;;;;;16.40;99.90;;;;;;4920517;28;19941;-71
2023/09/18 00:47:59;;;;;;;;;;;16.50;99.90;;;;;;4927132;28;20091;-71
2023/09/18 00:50:24;;;;;;;;;;;16.40;99.90;;;;;;4922917;28;19936;-71
2023/09/18 00:52:50;;;;;;;;;;;16.40;99.90;;;;;;4922637;28;19936;-72
2023/09/18 00:55:16;;;;;;;;;;;16.30;99.90;;;;;;4925152;28;19928;-72
2023/09/18 00:57:42;;;;;;;;;;;16.30;99.90;;;;;;4919837;28;20030;-71
2023/09/18 01:38:18;;;;;;;;;;;16.10;99.90;;;;;;4957479;28;20013;-71
2023/09/18 01:40:43;;;;;;;;;;;16.10;99.90;;;;;;4925055;28;20002;-72
2023/09/18 01:43:09;;;;;;;;;;;15.90;99.90;;;;;;4922073;28;24155;-72
2023/09/18 01:45:35;;;;;;;;;;;15.90;99.90;;;;;;4921498;28;19959;-72
2023/09/18 01:48:03;;;;;;;;;;;15.80;99.90;;;;;;4920530;28;19933;-72
2023/09/18 01:50:29;;;;;;;;;;;15.70;99.90;;;;;;4927759;28;19971;-72
2023/09/18 01:52:54;;;;;;;;;;;15.70;99.90;;;;;;4938235;28;20044;-72
2023/09/18 01:55:20;;;;;;;;;;;15.60;99.90;;;;;;4927252;28;19963;-72
2023/09/18 01:57:45;;;;;;;;;;;15.60;99.90;;;;;;4926145;28;19962;-72
2023/09/18 02:00:11;;;;;;;;;;;15.60;99.90;;;;;;4929357;28;19969;-72
2023/09/18 02:02:37;;;;;;;;;;;15.60;99.90;;;;;;4931451;28;19944;-71
2023/09/18 02:05:03;;;;;;;;;;;15.50;99.90;;;;;;4922302;28;19955;-72
2023/09/18 02:07:28;;;;;;;;;;;15.50;99.90;;;;;;4925417;28;19944;-71
2023/09/18 02:09:54;;;;;;;;;;;15.50;99.90;;;;;;4928996;28;19942;-71
2023/09/18 02:12:19;;;;;;;;;;;15.50;99.90;;;;;;4925219;28;20695;-71
2023/09/18 02:14:45;;;;;;;;;;;15.50;99.90;;;;;;4926415;28;19963;-72
2023/09/18 02:17:11;;;;;;;;;;;15.50;99.90;;;;;;4928916;28;21264;-71
2023/09/18 02:19:36;;;;;;;;;;;15.40;99.90;;;;;;4924437;28;19939;-71
2023/09/18 02:22:02;;;;;;;;;;;15.30;99.90;;;;;;4923118;28;20340;-71
2023/09/18 02:24:28;;;;;;;;;;;15.30;99.90;;;;;;4917166;28;19992;-71
2023/09/18 02:26:53;;;;;;;;;;;15.20;99.90;;;;;;4922135;28;19938;-72
2023/09/18 02:29:19;;;;;;;;;;;15.30;99.90;;;;;;4923686;28;20037;-71
2023/09/18 02:31:44;;;;;;;;;;;15.30;99.90;;;;;;4921611;28;19939;-72
2023/09/18 02:34:10;;;;;;;;;;;15.30;99.90;;;;;;4917881;28;20020;-71
2023/09/18 02:36:35;;;;;;;;;;;15.30;99.90;;;;;;4921966;28;20441;-71
2023/09/18 02:39:01;;;;;;;;;;;15.30;99.90;;;;;;4922209;28;19968;-72
2023/09/18 02:41:26;;;;;;;;;;;15.40;99.90;;;;;;4923239;28;19936;-72
2023/09/18 02:43:52;;;;;;;;;;;15.40;99.90;;;;;;4923942;28;20316;-71
2023/09/18 02:46:18;;;;;;;;;;;15.40;99.90;;;;;;4922284;28;19935;-71
2023/09/18 02:48:43;;;;;;;;;;;15.50;99.90;;;;;;4921264;28;19937;-71
2023/09/18 02:51:09;;;;;;;;;;;15.40;99.90;;;;;;4912544;28;20071;-71
2023/09/18 02:53:34;;;;;;;;;;;15.40;99.90;;;;;;4922874;28;19933;-71
2023/09/18 02:56:00;;;;;;;;;;;15.40;99.90;;;;;;4921304;28;19929;-72
2023/09/18 02:58:26;;;;;;;;;;;15.30;99.90;;;;;;4928099;28;20606;-72
2023/09/18 03:00:52;;;;;;;;;;;15.20;99.90;;;;;;4917802;28;19980;-72
2023/09/18 03:03:17;;;;;;;;;;;15.20;99.90;;;;;;4926659;28;20433;-72
2023/09/18 03:05:43;;;;;;;;;;;15.20;99.90;;;;;;4924365;28;19935;-71
2023/09/18 03:08:09;;;;;;;;;;;15.10;99.90;;;;;;4920692;28;19968;-71
2023/09/18 03:10:35;;;;;;;;;;;15.10;99.90;;;;;;4916577;28;19963;-71
2023/09/18 03:13:04;;;;;;;;;;;15.10;99.90;;;;;;4922924;28;19937;-71
2023/09/18 03:15:33;;;;;;;;;;;15.10;99.90;;;;;;4918126;28;19990;-71
2023/09/18 03:17:59;;;;;;;;;;;15.10;99.90;;;;;;4918442;28;19974;-71
2023/09/18 03:20:25;;;;;;;;;;;15.10;99.90;;;;;;4927309;28;20318;-71
2023/09/18 03:22:51;;;;;;;;;;;15.20;99.90;;;;;;4923765;28;19948;-71
2023/09/18 03:25:17;;;;;;;;;;;15.20;99.90;;;;;;4932940;28;19989;-72
2023/09/18 03:27:42;;;;;;;;;;;15.20;99.90;;;;;;4923347;28;25603;-72
2023/09/18 03:30:08;;;;;;;;;;;15.20;99.90;;;;;;4920478;28;20004;-72
2023/09/18 03:32:35;;;;;;;;;;;15.20;99.90;;;;;;4930172;28;19940;-71
2023/09/18 03:35:01;;;;;;;;;;;15.20;99.90;;;;;;4928539;28;20024;-72
2023/09/18 03:37:27;;;;;;;;;;;15.20;99.90;;;;;;4918985;28;20451;-72
2023/09/18 03:39:52;;;;;;;;;;;15.20;99.90;;;;;;4927945;28;20481;-71
2023/09/18 03:42:18;;;;;;;;;;;15.20;99.90;;;;;;4932347;28;19938;-71
2023/09/18 03:44:43;;;;;;;;;;;15.30;99.90;;;;;;4929824;28;20056;-71
2023/09/18 03:47:09;;;;;;;;;;;15.20;99.90;;;;;;4933013;28;24128;-71
2023/09/18 03:49:34;;;;;;;;;;;15.20;99.90;;;;;;4928311;28;19938;-71
2023/09/18 03:52:00;;;;;;;;;;;15.10;99.90;;;;;;4926389;28;19977;-71
2023/09/18 03:54:25;;;;;;;;;;;15.10;99.90;;;;;;4926608;28;19936;-72
2023/09/18 03:56:51;;;;;;;;;;;15.00;99.90;;;;;;4926863;28;20466;-71
2023/09/18 03:59:16;;;;;;;;;;;14.90;99.90;;;;;;4924997;28;19944;-71
2023/09/18 04:01:42;;;;;;;;;;;15.00;99.90;;;;;;4920579;28;19937;-72
2023/09/18 04:04:07;;;;;;;;;;;15.00;99.90;;;;;;4923422;28;20327;-71
2023/09/18 04:06:37;;;;;;;;;;;15.00;99.90;;;;;;4919327;28;19941;-71
2023/09/18 04:09:03;;;;;;;;;;;14.90;99.90;;;;;;4920999;28;19960;-71
2023/09/18 04:11:32;;;;;;;;;;;15.00;99.90;;;;;;4904626;28;20298;-72
2023/09/18 04:13:58;;;;;;;;;;;15.00;99.90;;;;;;4922593;28;19933;-72
2023/09/18 04:16:24;;;;;;;;;;;15.00;99.90;;;;;;4915393;28;20428;-72
2023/09/18 04:18:50;;;;;;;;;;;15.00;99.90;;;;;;4925441;28;19988;-71
2023/09/18 04:21:15;;;;;;;;;;;15.00;99.90;;;;;;4929616;28;19993;-71
2023/09/18 04:23:41;;;;;;;;;;;15.10;99.90;;;;;;4923759;28;22242;-71
2023/09/18 04:26:06;;;;;;;;;;;15.10;99.90;;;;;;4926056;28;19943;-71
2023/09/18 04:28:32;;;;;;;;;;;15.10;99.90;;;;;;4921211;28;19925;-71
2023/09/18 04:30:57;;;;;;;;;;;15.10;99.90;;;;;;4922388;28;19944;-72
2023/09/18 04:33:23;;;;;;;;;;;15.10;99.90;;;;;;4917270;28;19941;-71
2023/09/18 04:35:48;;;;;;;;;;;15.10;99.90;;;;;;4913975;28;20632;-71
2023/09/18 04:38:19;;;;;;;;;;;15.10;99.90;;;;;;4922497;28;19988;-71
2023/09/18 04:40:45;;;;;;;;;;;15.10;99.90;;;;;;4924783;28;20027;-71
2023/09/18 04:43:11;;;;;;;;;;;15.10;99.90;;;;;;4919282;28;19981;-71
2023/09/18 04:45:37;;;;;;;;;;;15.10;99.90;;;;;;4910794;28;20775;-72
2023/09/18 04:48:03;;;;;;;;;;;15.20;99.90;;;;;;4923958;28;19929;-71
2023/09/18 04:50:29;;;;;;;;;;;15.20;99.90;;;;;;4910711;28;19941;-72
2023/09/18 04:52:55;;;;;;;;;;;15.20;99.90;;;;;;4922339;28;20000;-72
2023/09/18 04:55:21;;;;;;;;;;;15.20;99.90;;;;;;4902846;28;19979;-72
2023/09/18 04:57:47;;;;;;;;;;;15.20;99.90;;;;;;4920866;28;19952;-72
2023/09/18 05:00:13;;;;;;;;;;;15.20;99.90;;;;;;4912521;28;19941;-73
2023/09/18 05:02:39;;;;;;;;;;;15.20;99.90;;;;;;4904301;28;19942;-72
2023/09/18 05:05:05;;;;;;;;;;;15.30;99.90;;;;;;4920699;28;19981;-71
2023/09/18 05:07:32;;;;;;;;;;;15.30;99.90;;;;;;4921955;28;19939;-72
2023/09/18 05:09:58;;;;;;;;;;;15.40;99.90;;;;;;4910407;28;19938;-71
2023/09/18 05:12:23;;;;;;;;;;;15.40;99.90;;;;;;4919027;28;20576;-70
2023/09/18 05:14:49;;;;;;;;;;;15.40;99.90;;;;;;4916082;28;20025;-70
2023/09/18 05:17:15;;;;;;;;;;;15.50;99.90;;;;;;4913726;28;20049;-70
2023/09/18 05:19:41;;;;;;;;;;;15.50;99.90;;;;;;4911183;28;19982;-70
2023/09/18 05:22:07;;;;;;;;;;;15.60;99.90;;;;;;4918752;28;20551;-71
2023/09/18 05:24:33;;;;;;;;;;;15.70;99.90;;;;;;4912129;28;19990;-72
2023/09/18 05:26:59;;;;;;;;;;;15.80;99.90;;;;;;4914932;28;19946;-71
2023/09/18 05:29:24;;;;;;;;;;;15.90;99.90;;;;;;4921305;28;19967;-71
2023/09/18 05:31:49;;;;;;;;;;;16.00;99.90;;;;;;4912124;28;19933;-71
2023/09/18 05:34:15;;;;;;;;;;;16.00;99.90;;;;;;4905905;28;19951;-71
2023/09/18 05:36:41;;;;;;;;;;;16.10;99.90;;;;;;4908562;28;20457;-71
2023/09/18 05:39:12;;;;;;;;;;;16.20;99.90;;;;;;4912210;28;19959;-71
2023/09/18 05:41:38;;;;;;;;;;;16.30;99.90;;;;;;4921925;28;19935;-72
2023/09/18 05:44:04;;;;;;;;;;;16.50;99.90;;;;;;4924003;28;19935;-71
2023/09/18 05:46:30;;;;;;;;;;;16.60;99.90;;;;;;4924939;28;19947;-72
2023/09/18 05:48:57;;;;;;;;;;;16.70;99.90;;;;;;4928852;28;19982;-72
2023/09/18 05:51:22;;;;;;;;;;;16.80;99.90;;;;;;4923200;28;19971;-72
2023/09/18 05:53:48;;;;;;;;;;;17.00;99.90;;;;;;4923522;28;20047;-72
2023/09/18 05:56:14;;;;;;;;;;;17.10;99.90;;;;;;4924882;28;19943;-72
2023/09/18 05:58:40;;;;;;;;;;;17.10;99.90;;;;;;4930299;28;19944;-72
2023/09/18 06:01:07;;;;;;;;;;;17.20;99.90;;;;;;4920913;28;20317;-71
2023/09/18 06:03:35;;;;;;;;;;;17.30;99.90;;;;;;4934843;28;19939;-72
2023/09/18 06:06:01;;;;;;;;;;;17.30;99.90;;;;;;4928671;28;20076;-71
2023/09/18 06:08:28;;;;;;;;;;;17.40;99.90;;;;;;4923908;28;20471;-71
2023/09/18 06:10:55;;;;;;;;;;;17.40;99.90;;;;;;4926413;28;20044;-72
2023/09/18 06:13:20;;;;;;;;;;;17.40;99.90;;;;;;4929908;28;20235;-71
2023/09/18 06:15:46;;;;;;;;;;;17.50;99.90;;;;;;4932909;28;20501;-71
2023/09/18 06:18:11;;;;;;;;;;;17.60;99.90;;;;;;4937508;28;20017;-71
2023/09/18 06:20:37;;;;;;;;;;;17.60;99.90;;;;;;4933178;28;20386;-71
2023/09/18 06:23:03;;;;;;;;;;;17.70;99.90;;;;;;4929554;28;19926;-71
2023/09/18 06:25:31;;;;;;;;;;;17.80;99.90;;;;;;4928480;28;19937;-71
2023/09/18 06:27:56;;;;;;;;;;;17.90;99.90;;;;;;4927459;28;19942;-71
2023/09/18 06:30:22;;;;;;;;;;;18.00;99.90;;;;;;4925434;28;19929;-71
2023/09/18 06:32:48;;;;;;;;;;;18.20;99.90;;;;;;4918042;28;20449;-71
2023/09/18 06:35:13;;;;;;;;;;;18.30;99.90;;;;;;4919297;28;19951;-71
2023/09/18 06:37:39;;;;;;;;;;;18.40;99.90;;;;;;4917846;28;20075;-72
2023/09/18 06:40:05;;;;;;;;;;;18.50;99.90;;;;;;4930242;28;19960;-71
2023/09/18 06:42:31;;;;;;;;;;;18.70;99.90;;;;;;4925583;28;19939;-71
2023/09/18 06:44:57;;;;;;;;;;;18.70;99.90;;;;;;4929624;28;19927;-71
2023/09/18 06:47:24;;;;;;;;;;;18.90;99.90;;;;;;4914105;29;19977;-72
2023/09/18 06:49:50;;;;;;;;;;;19.10;99.90;;;;;;4928894;28;19936;-71
2023/09/18 06:52:16;;;;;;;;;;;19.20;99.90;;;;;;4920021;28;19950;-71
2023/09/18 06:54:43;;;;;;;;;;;19.30;99.90;;;;;;4902012;28;19965;-72
2023/09/18 06:57:09;;;;;;;;;;;19.40;99.90;;;;;;4919843;28;19982;-72
2023/09/18 06:59:35;;;;;;;;;;;19.60;99.90;;;;;;4919818;28;20584;-72
2023/09/18 07:02:01;;;;;;;;;;;19.70;99.90;;;;;;4917902;28;21133;-72
2023/09/18 07:04:26;;;;;;;;;;;19.90;99.90;;;;;;4919768;28;19940;-72
2023/09/18 07:06:53;;;;;;;;;;;20.00;99.90;;;;;;4921134;28;20558;-71
2023/09/18 07:09:19;;;;;;;;;;;20.10;99.90;;;;;;4919850;28;19937;-71
2023/09/18 07:11:45;;;;;;;;;;;20.20;99.90;;;;;;4917480;28;19991;-72
2023/09/18 07:14:10;;;;;;;;;;;20.10;99.90;;;;;;4917849;28;19935;-72
2023/09/18 07:16:36;;;;;;;;;;;20.10;99.90;;;;;;4911608;28;20022;-72
2023/09/18 07:19:04;;;;;;;;;;;20.10;99.90;;;;;;4920866;28;20041;-71
2023/09/18 07:21:30;;;;;;;;;;;20.10;99.90;;;;;;4922396;28;20413;-73
2023/09/18 07:23:55;;;;;;;;;;;20.20;99.90;;;;;;4922596;28;20020;-72
2023/09/18 07:26:21;;;;;;;;;;;20.40;99.90;;;;;;4928252;28;19937;-72
2023/09/18 07:28:48;;;;;;;;;;;20.30;99.90;;;;;;4934642;28;20000;-71
2023/09/18 07:31:14;;;;;;;;;;;20.40;99.90;;;;;;4924769;28;19960;-72
2023/09/18 07:33:40;;;;;;;;;;;20.40;99.90;;;;;;4924472;28;21125;-72
2023/09/18 07:36:06;;;;;;;;;;;20.50;99.90;;;;;;4922643;28;19960;-72
2023/09/18 07:38:31;;;;;;;;;;;20.60;99.90;;;;;;4929196;28;20024;-72
2023/09/18 07:40:57;;;;;;;;;;;20.60;99.90;;;;;;4933638;28;20590;-72
2023/09/18 07:43:23;;;;;;;;;;;20.60;99.90;;;;;;4920364;28;20887;-72
2023/09/18 07:45:49;;;;;;;;;;;20.70;99.90;;;;;;4925972;28;19934;-68
2023/09/18 07:48:17;;;;;;;;;;;20.90;99.90;;;;;;4923360;28;19987;-72
2023/09/18 07:50:45;;;;;;;;;;;21.00;99.90;;;;;;4929294;28;19937;-72
2023/09/18 07:53:11;;;;;;;;;;;21.20;99.90;;;;;;4930167;28;20071;-72
2023/09/18 07:55:36;;;;;;;;;;;21.20;99.90;;;;;;4928399;28;19928;-72
2023/09/18 07:58:02;;;;;;;;;;;21.20;99.90;;;;;;4934755;28;20063;-71
2023/09/18 08:00:28;;;;;;;;;;;21.30;99.90;;;;;;4919876;28;19981;-71
2023/09/18 08:02:58;;;;;;;;;;;21.50;99.90;;;;;;4931602;28;20607;-71
2023/09/18 08:05:27;;;;;;;;;;;21.60;99.90;;;;;;4922160;28;20032;-71
2023/09/18 08:07:55;;;;;;;;;;;21.60;99.90;;;;;;4930878;28;20054;-72
2023/09/18 08:10:21;;;;;;;;;;;21.80;99.90;;;;;;4930624;28;19929;-72
2023/09/18 08:12:48;;;;;;;;;;;21.90;99.90;;;;;;4930901;28;20003;-72
2023/09/18 08:15:14;;;;;;;;;;;22.00;99.90;;;;;;4913301;28;20473;-72
2023/09/18 08:17:40;;;;;;;;;;;22.00;99.90;;;;;;4942643;28;19960;-72
2023/09/18 08:20:12;;;;;;;;;;;22.10;99.90;;;;;;4910095;28;20637;-72
2023/09/18 08:22:37;;;;;;;;;;;22.20;99.90;;;;;;4923333;28;20330;-72
2023/09/18 08:25:03;;;;;;;;;;;22.30;99.90;;;;;;4926588;28;19933;-72
2023/09/18 08:27:29;;;;;;;;;;;22.40;99.90;;;;;;4933026;28;20031;-73
2023/09/18 08:29:54;;;;;;;;;;;22.50;99.90;;;;;;4935640;28;19933;-73
2023/09/18 08:32:20;;;;;;;;;;;22.50;99.90;;;;;;4926122;28;19935;-72
2023/09/18 08:34:45;;;;;;;;;;;22.60;99.90;;;;;;4934597;28;20307;-72
2023/09/18 08:37:11;;;;;;;;;;;22.60;99.90;;;;;;4928758;28;21435;-72
2023/09/18 08:39:37;;;;;;;;;;;22.70;99.90;;;;;;4930124;28;19961;-72
2023/09/18 08:42:04;;;;;;;;;;;22.70;99.90;;;;;;4933402;28;20390;-72
2023/09/18 08:44:30;;;;;;;;;;;22.80;99.90;;;;;;4932431;28;19929;-72
2023/09/18 08:46:56;;;;;;;;;;;22.90;99.90;;;;;;4929457;28;19962;-72
2023/09/18 08:49:25;;;;;;;;;;;23.00;99.90;;;;;;4939897;28;20002;-72
2023/09/18 08:51:51;;;;;;;;;;;23.10;99.90;;;;;;4927599;28;19937;-72
2023/09/18 08:54:16;;;;;;;;;;;23.20;99.90;;;;;;4930997;28;19939;-72
2023/09/18 08:56:42;;;;;;;;;;;23.30;99.90;;;;;;4930471;28;20437;-72
2023/09/18 08:59:07;;;;;;;;;;;23.30;99.90;;;;;;4923390;28;19943;-72
2023/09/18 09:01:33;;;;;;;;;;;23.30;99.90;;;;;;4925546;28;20396;-72
2023/09/18 09:04:00;;;;;;;;;;;23.40;99.90;;;;;;4929429;28;20344;-72
2023/09/18 09:06:25;;;;;;;;;;;23.30;99.90;;;;;;4928193;28;19935;-72
2023/09/18 09:08:51;;;;;;;;;;;23.30;99.90;;;;;;4930984;28;19989;-72
2023/09/18 09:11:17;;;;;;;;;;;23.30;99.90;;;;;;4929126;28;20563;-73
2023/09/18 09:13:43;;;;;;;;;;;23.40;99.90;;;;;;4935119;28;19935;-73
2023/09/18 09:16:10;;;;;;;;;;;23.40;99.90;;;;;;4928339;28;19941;-73
2023/09/18 09:18:46;;;;;;;;;;;23.40;99.90;;;;;;4930270;28;19954;-73
2023/09/18 09:21:12;;;;;;;;;;;23.50;99.90;;;;;;4929913;28;20018;-73
2023/09/18 09:23:52;;;;;;;;;;;23.60;99.90;;;;;;4933626;28;19931;-72
2023/09/18 09:26:18;;;;;;;;;;;23.60;99.90;;;;;;4931148;28;19922;-72
2023/09/18 09:28:44;;;;;;;;;;;23.70;99.90;;;;;;4928665;28;20139;-72
2023/09/18 09:31:13;;;;;;;;;;;23.80;99.90;;;;;;4921960;28;20295;-72
2023/09/18 09:33:49;;;;;;;;;;;23.90;99.90;;;;;;4927248;28;19930;-72
2023/09/18 09:36:15;;;;;;;;;;;24.00;99.90;;;;;;4930746;28;19953;-72
2023/09/18 09:38:41;;;;;;;;;;;24.10;99.90;;;;;;4925473;28;20066;-72
2023/09/18 09:41:06;;;;;;;;;;;24.10;99.90;;;;;;4928044;28;20028;-72
2023/09/18 09:43:33;;;;;;;;;;;23.90;99.90;;;;;;4926660;28;20388;-72
2023/09/18 09:45:59;;;;;;;;;;;23.80;99.90;;;;;;4926024;28;19934;-72
2023/09/18 09:48:25;;;;;;;;;;;23.80;99.90;;;;;;4928469;28;20113;-72
2023/09/18 09:50:51;;;;;;;;;;;23.80;99.90;;;;;;4929579;28;19941;-72
2023/09/18 09:53:18;;;;;;;;;;;23.90;99.90;;;;;;4924770;28;19935;-72
2023/09/18 09:55:43;;;;;;;;;;;24.00;99.90;;;;;;4925540;28;19933;-73
2023/09/18 09:58:10;;;;;;;;;;;24.00;99.90;;;;;;4909484;28;20339;-73
2023/09/18 10:00:45;;;;;;;;;;;24.00;99.90;;;;;;4910689;28;19943;-72
2023/09/18 10:03:15;;;;;;;;;;;24.00;99.90;;;;;;4922765;28;20025;-73
2023/09/18 10:05:41;;;;;;;;;;;24.10;99.90;;;;;;4924813;28;20519;-73
2023/09/18 10:08:10;;;;;;;;;;;24.10;99.90;;;;;;4928775;28;21268;-72
2023/09/18 10:10:40;;;;;;;;;;;24.20;99.90;;;;;;4930707;28;20387;-72
2023/09/18 10:13:26;;;;;;;;;;;24.20;99.90;;;;;;4934797;28;20476;-72
2023/09/18 10:15:52;;;;;;;;;;;24.20;99.90;;;;;;4925066;28;19946;-72
2023/09/18 10:18:28;;;;;;;;;;;24.30;99.90;;;;;;4927958;28;20005;-73
2023/09/18 10:20:58;;;;;;;;;;;24.40;99.90;;;;;;4945969;28;19933;-73
2023/09/18 10:23:34;;;;;;;;;;;24.60;99.90;;;;;;4933780;28;19935;-73
2023/09/18 10:26:03;;;;;;;;;;;24.70;99.90;;;;;;4927676;28;19964;-73
2023/09/18 10:28:30;;;;;;;;;;;24.80;99.90;;;;;;4927922;28;19995;-73
2023/09/18 10:30:56;;;;;;;;;;;24.90;99.90;;;;;;4924996;28;19941;-85
2023/09/18 10:33:22;;;;;;;;;;;24.90;99.90;;;;;;4926186;28;20000;-81
2023/09/18 10:35:47;;;;;;;;;;;24.80;99.90;;;;;;4924677;28;19954;-82
2023/09/18 10:38:13;;;;;;;;;;;24.80;99.90;;;;;;4931123;28;19953;-80
2023/09/18 10:40:40;;;;;;;;;;;24.90;99.90;;;;;;4920450;28;19964;-76
2023/09/18 10:43:09;;;;;;;;;;;24.90;99.90;;;;;;4922679;28;20028;-76
2023/09/18 10:45:35;;;;;;;;;;;25.00;99.90;;;;;;4928585;28;19954;-73
2023/09/18 10:48:00;;;;;;;;;;;25.00;99.90;;;;;;4933113;28;19944;-73
2023/09/18 10:50:27;;;;;;;;;;;25.00;99.90;;;;;;4923941;28;19952;-73
2023/09/18 10:52:52;;;;;;;;;;;25.10;99.90;;;;;;4922033;28;19930;-73
2023/09/18 10:55:18;;;;;;;;;;;25.10;99.90;;;;;;4919220;28;20547;-73
2023/09/18 10:57:53;;;;;;;;;;;25.20;99.90;;;;;;4929493;28;19950;-72
2023/09/18 11:00:22;;;;;;;;;;;25.30;99.90;;;;;;4927029;28;19987;-72
2023/09/18 11:02:54;;;;;;;;;;;25.30;99.90;;;;;;4927870;28;19935;-71
2023/09/18 11:05:29;;;;;;;;;;;25.30;99.90;;;;;;4922189;28;19944;-70
2023/09/18 11:08:13;;;;;;;;;;;25.40;99.90;;;;;;4922336;28;20538;-71
2023/09/18 11:10:54;;;;;;;;;;;25.50;99.90;;;;;;4914504;28;19937;-71
2023/09/18 11:13:29;;;;;;;;;;;25.50;99.90;;;;;;4925926;28;20439;-70
2023/09/18 11:16:00;;;;;;;;;;;25.60;99.90;;;;;;4925212;28;20424;-72
2023/09/18 11:18:32;;;;;;;;;;;25.60;99.90;;;;;;4924785;28;20087;-71
2023/09/18 11:21:10;;;;;;;;;;;25.60;99.90;;;;;;4917621;28;20489;-72
2023/09/18 11:23:46;;;;;;;;;;;25.60;99.90;;;;;;4915123;28;19971;-71
2023/09/18 11:26:15;;;;;;;;;;;25.60;99.90;;;;;;4917631;28;19933;-71
2023/09/18 11:28:42;;;;;;;;;;;25.70;99.90;;;;;;4928940;28;20045;-70
2023/09/18 11:31:09;;;;;;;;;;;25.50;99.90;;;;;;4918206;28;19938;-71
2023/09/18 11:33:38;;;;;;;;;;;25.50;99.90;;;;;;4921838;28;19942;-71
2023/09/18 11:36:07;;;;;;;;;;;25.40;99.90;;;;;;4922879;28;19954;-73
2023/09/18 11:38:34;;;;;;;;;;;25.50;99.90;;;;;;4910472;28;19958;-71
2023/09/18 11:41:01;;;;;;;;;;;25.50;99.90;;;;;;4929921;28;19943;-71
2023/09/18 11:43:30;;;;;;;;;;;25.50;99.90;;;;;;4926846;28;19938;-71
2023/09/18 11:45:59;;;;;;;;;;;25.50;99.90;;;;;;4923336;28;20377;-71
2023/09/18 11:48:29;;;;;;;;;;;25.60;99.90;;;;;;4923692;28;20308;-72
2023/09/18 11:50:56;;;;;;;;;;;25.60;99.90;;;;;;4928185;28;19969;-71
2023/09/18 11:53:23;;;;;;;;;;;25.50;99.90;;;;;;4917327;28;19938;-71
2023/09/18 11:55:48;;;;;;;;;;;25.60;99.90;;;;;;4928289;28;19934;-71
2023/09/18 11:58:14;;;;;;;;;;;25.80;99.90;;;;;;4928915;28;20606;-72
2023/09/18 12:00:45;;;;;;;;;;;25.90;99.90;;;;;;4932552;28;19938;-73
2023/09/18 12:03:35;;;;;;;;;;;26.00;99.90;;;;;;4919516;28;26372;-72
2023/09/18 12:06:01;;;;;;;;;;;26.10;99.90;;;;;;4925453;28;19940;-71
2023/09/18 12:08:29;;;;;;;;;;;26.20;99.90;;;;;;4927714;28;20516;-72
2023/09/18 12:10:55;;;;;;;;;;;26.20;99.90;;;;;;4927497;28;19933;-72
2023/09/18 12:13:21;;;;;;;;;;;26.40;99.90;;;;;;4911531;28;19943;-72
2023/09/18 12:15:47;;;;;;;;;;;26.50;99.90;;;;;;4918986;28;20036;-72
2023/09/18 12:18:14;;;;;;;;;;;26.50;99.90;;;;;;4918418;28;19961;-72
2023/09/18 12:20:44;;;;;;;;;;;26.40;99.90;;;;;;4924904;28;19959;-72
2023/09/18 12:23:10;;;;;;;;;;;26.50;99.90;;;;;;4920707;28;22471;-71
2023/09/18 12:25:35;;;;;;;;;;;26.40;99.90;;;;;;4916514;28;19992;-72
2023/09/18 12:28:01;;;;;;;;;;;26.40;99.90;;;;;;4925910;28;20021;-71
2023/09/18 12:30:27;;;;;;;;;;;26.60;99.90;;;;;;4925824;28;19942;-71
2023/09/18 12:32:52;;;;;;;;;;;26.60;99.90;;;;;;4928784;28;19971;-72
2023/09/18 12:35:18;;;;;;;;;;;26.60;99.90;;;;;;4911786;28;19967;-71
2023/09/18 12:37:44;;;;;;;;;;;26.60;99.90;;;;;;4910344;28;20006;-71
2023/09/18 12:40:22;;;;;;;;;;;26.50;99.90;;;;;;4925187;28;20431;-72
2023/09/18 12:42:48;;;;;;;;;;;26.50;99.90;;;;;;4920576;28;20612;-71
2023/09/18 12:45:14;;;;;;;;;;;26.60;99.90;;;;;;4919059;28;19942;-72
2023/09/18 12:47:40;;;;;;;;;;;26.60;99.90;;;;;;4918962;28;20453;-71
2023/09/18 12:50:10;;;;;;;;;;;26.60;99.90;;;;;;4924052;28;20415;-72
2023/09/18 12:52:36;;;;;;;;;;;26.60;99.90;;;;;;4924514;28;19976;-72
2023/09/18 12:55:04;;;;;;;;;;;26.60;99.90;;;;;;4916826;28;20654;-72
2023/09/18 12:57:30;;;;;;;;;;;26.70;99.90;;;;;;4917471;28;19959;-72
2023/09/18 12:59:55;;;;;;;;;;;26.80;99.90;;;;;;4942090;28;19989;-72
2023/09/18 13:02:21;;;;;;;;;;;26.80;99.90;;;;;;4929468;28;19942;-72
2023/09/18 13:04:54;;;;;;;;;;;26.90;99.90;;;;;;4925538;28;19932;-72
2023/09/18 13:07:21;;;;;;;;;;;27.00;99.90;;;;;;4925177;28;20005;-72
2023/09/18 13:10:00;;;;;;;;;;;27.00;99.90;;;;;;4926019;28;20101;-71
2023/09/18 13:12:38;;;;;;;;;;;26.80;99.90;;;;;;4917048;28;20485;-72
2023/09/18 13:15:08;;;;;;;;;;;26.60;99.90;;;;;;4907956;28;20013;-69
2023/09/18 13:17:44;;;;;;;;;;;26.40;99.90;;;;;;4918671;28;20021;-77
2023/09/18 13:20:11;;;;;;;;;;;26.20;99.90;;;;;;4922101;28;19931;-76
2023/09/18 13:22:37;;;;;;;;;;;26.20;99.90;;;;;;4918394;28;20475;-72
2023/09/18 13:25:02;;;;;;;;;;;26.20;99.90;;;;;;4915065;28;19944;-72
2023/09/18 13:27:28;;;;;;;;;;;26.20;99.90;;;;;;4918355;28;20054;-68
2023/09/18 13:29:57;;;;;;;;;;;26.30;99.90;;;;;;4905029;28;20085;-69
2023/09/18 13:32:23;;;;;;;;;;;26.20;99.90;;;;;;4919093;28;22118;-65
2023/09/18 13:34:49;;;;;;;;;;;26.20;99.90;;;;;;4924325;28;20862;-65
2023/09/18 13:37:17;;;;;;;;;;;26.20;99.90;;;;;;4923109;28;19949;-64
2023/09/18 13:39:42;;;;;;;;;;;26.30;99.90;;;;;;4919422;28;20001;-65
2023/09/18 13:42:08;;;;;;;;;;;26.40;99.90;;;;;;4920541;28;19935;-66
2023/09/18 13:44:35;;;;;;;;;;;26.30;99.90;;;;;;4918133;28;19941;-65
2023/09/18 13:47:00;;;;;;;;;;;26.40;99.90;;;;;;4917701;28;19937;-65
2023/09/18 13:49:25;;;;;;;;;;;26.40;99.90;;;;;;4926317;28;19932;-65
2023/09/18 13:51:51;;;;;;;;;;;26.30;99.90;;;;;;4923288;28;19932;-65
2023/09/18 13:54:18;;;;;;;;;;;26.40;99.90;;;;;;4921082;28;19934;-66
2023/09/18 13:56:44;;;;;;;;;;;26.40;99.90;;;;;;4928585;28;19937;-66
2023/09/18 13:59:10;;;;;;;;;;;26.50;99.90;;;;;;4925110;28;20003;-65
2023/09/18 14:01:35;;;;;;;;;;;26.50;99.90;;;;;;4924735;28;19932;-66
2023/09/18 14:04:01;;;;;;;;;;;26.50;99.90;;;;;;4918583;28;20040;-66
2023/09/18 14:06:26;;;;;;;;;;;26.50;99.90;;;;;;4927268;28;20551;-66
2023/09/18 14:08:52;;;;;;;;;;;26.60;99.90;;;;;;4919892;28;19997;-66
2023/09/18 14:11:18;;;;;;;;;;;26.60;99.90;;;;;;4923407;28;19945;-66
2023/09/18 14:13:44;;;;;;;;;;;26.80;99.90;;;;;;4933805;28;20023;-65
2023/09/18 14:16:10;;;;;;;;;;;26.90;99.90;;;;;;4921714;28;20484;-65
2023/09/18 14:18:36;;;;;;;;;;;26.90;99.90;;;;;;4926409;28;19958;-65
2023/09/18 14:21:01;;;;;;;;;;;26.90;99.90;;;;;;4924749;28;19937;-66
2023/09/18 14:23:27;;;;;;;;;;;26.90;99.90;;;;;;4925638;28;20216;-66
2023/09/18 14:25:54;;;;;;;;;;;26.90;99.90;;;;;;4919031;28;19926;-66
2023/09/18 14:28:20;;;;;;;;;;;26.90;99.90;;;;;;4918129;28;19948;-65
2023/09/18 14:30:45;;;;;;;;;;;26.80;99.90;;;;;;4922517;28;19930;-66
2023/09/18 14:33:12;;;;;;;;;;;26.60;99.90;;;;;;4916852;28;23393;-65
2023/09/18 14:35:38;;;;;;;;;;;26.40;99.90;;;;;;4929117;28;19979;-65
2023/09/18 14:38:06;;;;;;;;;;;26.30;99.90;;;;;;4919083;28;20607;-66
2023/09/18 14:40:32;;;;;;;;;;;26.10;99.90;;;;;;4917563;28;20174;-65
2023/09/18 14:42:58;;;;;;;;;;;26.00;99.90;;;;;;4921149;28;20378;-65
2023/09/18 14:45:23;;;;;;;;;;;25.90;99.90;;;;;;4908475;28;19945;-64
2023/09/18 14:47:50;;;;;;;;;;;25.80;99.90;;;;;;4921369;28;20044;-64
2023/09/18 14:50:16;;;;;;;;;;;25.70;99.90;;;;;;4909990;28;19983;-65
2023/09/18 14:52:41;;;;;;;;;;;25.60;99.90;;;;;;4915592;28;19951;-72